Airfield :
LOGIN :

Register | Disclaimer

   EN    FR    IT 

 










Legend :    VFR   Marginal VFR   IFR   Intensive IFR   Very Intensive IFR
Visi :
Ceiling :
>= 8 km
>= 3000ft
5 to 8 km
1000 to 3000 ft
1500m to 5 km
500 to 1000 ft
800 to 1500m
200 to 500 ft
< 800m
< 200 ft
Symbols :   Thunderstorms  Fog  Heavy snow  Heavy precipitations  Wind > 20 kt
SIGMETs :     Misc.  Thunderstorms  Icing  Turbulence  Mountain Waves  Volcanic Ashes







- Airport Elevation : 622 ft
- IATA code : BRS
- Download approach charts


EGGD - Bristol Int.

CURRENT METAR :
  • 281250Z AUTO 19010KT 9999 BKN016 OVC023 16/13 Q1008

EXPIRED METARs :
  • 281220Z AUTO 20009KT 9999 OVC022 17/13 Q1008
  • 281150Z AUTO 20010KT 9999 BKN023 BKN031 17/13 Q1008
  • 281120Z AUTO 21012KT 170V240 9999 FEW022 BKN027 17/13 Q1008
  • 281050Z AUTO 21012KT 9999 BKN029 17/13 Q1008
  • 281020Z AUTO 21012KT 180V240 9999 BKN019 16/13 Q1008

TAF TAF EGGD
Valid from the 28 at 06:00 until the 29 at 06:00 UTC


280459Z 2806/2906 22012KT 9999 SCT020
TEMPO 2806/2814 25015G25KT 6000 SHRA BKN009
BECMG 2814/2817 7000 -RA BKN010
TEMPO 2814/2822 20017G27KT 4000 RADZ BKN007
PROB40
TEMPO 2820/2823 +RA BKN003
BECMG 2822/2901 28015KT 9999 NSW SCT010
BECMG 2904/2906 22008KT
ATIS : +44 1275 473 666
No reported NOTAMs for that airfield.



MET'MAP, your aeronautical weather chart ! - Copyright ORBIFLY December 2007 - Disclaimer

ORBIFLY MET'MAP TEAM :

Programming & Development : Alexandra Zaïnal
Concept & Development : Baudouin d'Aumeries
Co-Development & Prog : Marc-Olivier Méhu
Technical & hardware support : Manuel Goepfert

Contact : metmap@orbifly.com




SOURCES & CREDITS :

   NOAA